This is the latest recevied weather packets stored in our database for station/object W4NFM. If no packets are shown the sender has not sent any weather packets the latest 10 day(s).
| Time | Temp. | Humidity | Pressure | Rain* | Wind** | Luminosity | Snow |
|---|---|---|---|---|---|---|---|
| 1777312804 | 19.44° C | 46% | 1024 hPa | 0 mm | - | 78 W/m² | - |
| 1777311905 | 20° C | 56% | 1024.1 hPa | 0 mm | - | 45 W/m² | - |
| 1777306684 | 16.11° C | 55% | 1025 hPa | 0 mm | - | 25 W/m² | - |
| 1777305266 | 15° C | 55% | 1025 hPa | 0 mm | - | 21 W/m² | - |
| 1777304704 | 15.56° C | 62% | 1025.2 hPa | 0 mm | - | 21 W/m² | - |
| 1777300564 | 13.33° C | 59% | 1025.6 hPa | 0 mm | - | 16 W/m² | - |
| 1777299505 | 12.78° C | 71% | 1025.8 hPa | 0 mm | - | 19 W/m² | - |
| 1777298405 | 12.22° C | 66% | 1025.8 hPa | 0 mm | - | 17 W/m² | - |
| 1777291205 | 8.89° C | 91% | 1025.7 hPa | 0 mm | - | 9 W/m² | - |
| 1777290845 | 8.33° C | 92% | 1025.5 hPa | 0 mm | - | 8 W/m² | - |
| 1777288684 | 8.33° C | 91% | 1025.3 hPa | 0 mm | - | 6 W/m² | - |
| 1777287604 | 8.33° C | 90% | 1024.8 hPa | 0 mm | - | 4 W/m² | - |
| 1777285105 | 9.44° C | 89% | 1024.3 hPa | 0 mm | - | 0 W/m² | - |
| 1777284544 | 9.44° C | 89% | 1024.4 hPa | 0 mm | - | 0 W/m² | - |
| 1777282025 | 9.44° C | 90% | 1023.8 hPa | 0 mm | - | 0 W/m² | - |
| 1777280944 | 9.44° C | 89% | 1023.6 hPa | 0 mm | - | 0 W/m² | - |
| 1777280044 | 9.44° C | 88% | 1023.9 hPa | 0 mm | - | 0 W/m² | - |
| 1777278425 | 9.44° C | 89% | 1023.6 hPa | 0 mm | - | 0 W/m² | - |
| 1777277344 | 9.44° C | 89% | 1023.3 hPa | 0 mm | - | 0 W/m² | - |
| 1777276804 | 9.44° C | 90% | 1023.3 hPa | 0 mm | - | 0 W/m² | - |
| 1777271224 | 9.44° C | 91% | 1023.7 hPa | 0 mm | - | 0 W/m² | - |
| 1777267624 | 10° C | 90% | 1023.7 hPa | 0 mm | - | 0 W/m² | - |
| 1777262944 | 10° C | 89% | 1023.5 hPa | 0 mm | - | 0 W/m² | - |
| 1777260964 | 10.56° C | 88% | 1022.9 hPa | 0 mm | - | 0 W/m² | - |
| 1777253764 | 11.67° C | 92% | 1021.9 hPa | 0 mm | - | 0 W/m² | - |
* Rain latest hour (hover to see other rain measurements)
** Current wind speed in m/s (hover to see current wind gust speed)